sensor_id;sensor_type;location;lat;lon;timestamp;pressure;altitude;pressure_sealevel;temperature;humidity
77011;BME280;65945;53.148;17.956;2023-11-21T00:00:47;100537.00;;;0.62;97.84
77011;BME280;65945;53.148;17.956;2023-11-21T00:03:34;100536.37;;;0.62;97.82
77011;BME280;65945;53.148;17.956;2023-11-21T00:06:01;100542.11;;;0.62;97.53
77011;BME280;65945;53.148;17.956;2023-11-21T00:08:28;100544.39;;;0.60;97.98
77011;BME280;65945;53.148;17.956;2023-11-21T00:10:55;100544.63;;;0.59;97.91
77011;BME280;65945;53.148;17.956;2023-11-21T00:13:21;100547.37;;;0.59;98.02
77011;BME280;65945;53.148;17.956;2023-11-21T00:15:48;100550.58;;;0.59;98.02
77011;BME280;65945;53.148;17.956;2023-11-21T00:18:15;100553.42;;;0.58;98.08
77011;BME280;65945;53.148;17.956;2023-11-21T00:20:43;100556.70;;;0.58;97.88
77011;BME280;65945;53.148;17.956;2023-11-21T00:23:10;100558.66;;;0.58;98.06
77011;BME280;65945;53.148;17.956;2023-11-21T00:25:36;100557.40;;;0.57;98.28
77011;BME280;65945;53.148;17.956;2023-11-21T00:28:03;100558.33;;;0.56;98.35
77011;BME280;65945;53.148;17.956;2023-11-21T00:30:30;100562.42;;;0.55;98.08
77011;BME280;65945;53.148;17.956;2023-11-21T00:32:57;100556.75;;;0.55;98.18
77011;BME280;65945;53.148;17.956;2023-11-21T00:35:24;100560.96;;;0.54;98.03
77011;BME280;65945;53.148;17.956;2023-11-21T00:37:50;100566.90;;;0.55;98.18
77011;BME280;65945;53.148;17.956;2023-11-21T00:40:17;100571.02;;;0.53;98.00
77011;BME280;65945;53.148;17.956;2023-11-21T00:42:47;100575.68;;;0.52;98.13
77011;BME280;65945;53.148;17.956;2023-11-21T00:45:14;100582.13;;;0.51;98.13
77011;BME280;65945;53.148;17.956;2023-11-21T00:47:41;100582.18;;;0.50;98.19
77011;BME280;65945;53.148;17.956;2023-11-21T00:50:08;100585.73;;;0.49;97.99
77011;BME280;65945;53.148;17.956;2023-11-21T00:52:36;100587.52;;;0.49;98.12
77011;BME280;65945;53.148;17.956;2023-11-21T00:55:03;100589.58;;;0.48;98.16
77011;BME280;65945;53.148;17.956;2023-11-21T00:57:31;100587.87;;;0.46;97.99
77011;BME280;65945;53.148;17.956;2023-11-21T00:59:57;100587.81;;;0.44;97.96
77011;BME280;65945;53.148;17.956;2023-11-21T01:02:24;100594.67;;;0.42;98.02
77011;BME280;65945;53.148;17.956;2023-11-21T01:04:51;100593.41;;;0.41;97.78
77011;BME280;65945;53.148;17.956;2023-11-21T01:07:18;100594.80;;;0.39;97.92
77011;BME280;65945;53.148;17.956;2023-11-21T01:09:46;100598.56;;;0.38;97.70
77011;BME280;65945;53.148;17.956;2023-11-21T01:12:13;100604.10;;;0.37;97.86
77011;BME280;65945;53.148;17.956;2023-11-21T01:14:40;100602.73;;;0.37;97.78
77011;BME280;65945;53.148;17.956;2023-11-21T01:17:07;100607.55;;;0.36;97.75
77011;BME280;65945;53.148;17.956;2023-11-21T01:19:34;100610.35;;;0.35;97.62
77011;BME280;65945;53.148;17.956;2023-11-21T01:22:00;100618.02;;;0.35;97.70
77011;BME280;65945;53.148;17.956;2023-11-21T01:24:27;100618.83;;;0.33;97.72
77011;BME280;65945;53.148;17.956;2023-11-21T01:26:53;100615.59;;;0.32;97.62
77011;BME280;65945;53.148;17.956;2023-11-21T01:29:20;100620.90;;;0.32;97.41
77011;BME280;65945;53.148;17.956;2023-11-21T01:31:46;100624.18;;;0.31;97.30
77011;BME280;65945;53.148;17.956;2023-11-21T01:34:13;100625.30;;;0.30;97.30
77011;BME280;65945;53.148;17.956;2023-11-21T01:36:40;100626.94;;;0.30;97.70
77011;BME280;65945;53.148;17.956;2023-11-21T01:39:07;100622.64;;;0.28;97.21
77011;BME280;65945;53.148;17.956;2023-11-21T01:41:35;100628.44;;;0.26;97.20
77011;BME280;65945;53.148;17.956;2023-11-21T01:44:02;100618.41;;;0.26;97.07
77011;BME280;65945;53.148;17.956;2023-11-21T01:46:29;100626.83;;;0.25;97.16
77011;BME280;65945;53.148;17.956;2023-11-21T01:48:56;100637.15;;;0.25;97.06
77011;BME280;65945;53.148;17.956;2023-11-21T01:51:23;100645.27;;;0.22;96.88
77011;BME280;65945;53.148;17.956;2023-11-21T01:53:50;100650.05;;;0.19;96.49
77011;BME280;65945;53.148;17.956;2023-11-21T01:56:17;100654.65;;;0.17;96.57
77011;BME280;65945;53.148;17.956;2023-11-21T01:58:44;100652.90;;;0.15;96.16
77011;BME280;65945;53.148;17.956;2023-11-21T02:01:13;100650.03;;;0.12;95.86
77011;BME280;65945;53.148;17.956;2023-11-21T02:03:40;100649.48;;;0.09;96.22
77011;BME280;65945;53.148;17.956;2023-11-21T02:06:08;100648.86;;;0.08;96.16
77011;BME280;65945;53.148;17.956;2023-11-21T02:08:35;100652.10;;;0.06;95.90
77011;BME280;65945;53.148;17.956;2023-11-21T02:11:04;100652.16;;;0.04;95.72
77011;BME280;65945;53.148;17.956;2023-11-21T02:13:31;100653.66;;;0.03;95.62
77011;BME280;65945;53.148;17.956;2023-11-21T02:15:59;100655.34;;;0.02;96.26
77011;BME280;65945;53.148;17.956;2023-11-21T02:18:26;100654.29;;;0.02;96.21
77011;BME280;65945;53.148;17.956;2023-11-21T02:20:55;100654.27;;;0.00;96.35
77011;BME280;65945;53.148;17.956;2023-11-21T02:23:22;100650.38;;;0.01;96.34
77011;BME280;65945;53.148;17.956;2023-11-21T02:25:49;100649.90;;;-0.01;96.40
77011;BME280;65945;53.148;17.956;2023-11-21T02:28:16;100655.64;;;-0.01;96.25
77011;BME280;65945;53.148;17.956;2023-11-21T02:30:52;100658.61;;;0.00;96.64
77011;BME280;65945;53.148;17.956;2023-11-21T02:33:23;100659.37;;;0.00;96.91
77011;BME280;65945;53.148;17.956;2023-11-21T02:35:49;100661.55;;;-0.02;96.83
77011;BME280;65945;53.148;17.956;2023-11-21T02:38:17;100657.98;;;-0.04;97.11
77011;BME280;65945;53.148;17.956;2023-11-21T02:40:44;100666.91;;;-0.07;96.93
77011;BME280;65945;53.148;17.956;2023-11-21T02:43:11;100665.63;;;-0.11;97.13
77011;BME280;65945;53.148;17.956;2023-11-21T02:45:37;100669.86;;;-0.14;96.86
77011;BME280;65945;53.148;17.956;2023-11-21T02:48:04;100668.08;;;-0.18;96.37
77011;BME280;65945;53.148;17.956;2023-11-21T02:50:32;100673.20;;;-0.21;96.03
77011;BME280;65945;53.148;17.956;2023-11-21T02:52:59;100673.82;;;-0.21;96.38
77011;BME280;65945;53.148;17.956;2023-11-21T02:55:27;100683.79;;;-0.23;96.44
77011;BME280;65945;53.148;17.956;2023-11-21T02:57:54;100686.66;;;-0.23;96.10
77011;BME280;65945;53.148;17.956;2023-11-21T03:00:22;100691.50;;;-0.22;96.35
77011;BME280;65945;53.148;17.956;2023-11-21T03:02:50;100689.77;;;-0.22;96.30
77011;BME280;65945;53.148;17.956;2023-11-21T03:05:17;100693.26;;;-0.23;95.55
77011;BME280;65945;53.148;17.956;2023-11-21T03:07:44;100692.92;;;-0.22;95.59
77011;BME280;65945;53.148;17.956;2023-11-21T03:10:10;100693.95;;;-0.21;95.97
77011;BME280;65945;53.148;17.956;2023-11-21T03:12:38;100697.23;;;-0.22;95.60
77011;BME280;65945;53.148;17.956;2023-11-21T03:15:06;100697.77;;;-0.23;95.54
77011;BME280;65945;53.148;17.956;2023-11-21T03:17:33;100698.24;;;-0.24;95.30
77011;BME280;65945;53.148;17.956;2023-11-21T03:20:04;100706.04;;;-0.25;95.11
77011;BME280;65945;53.148;17.956;2023-11-21T03:22:31;100711.87;;;-0.25;95.02
77011;BME280;65945;53.148;17.956;2023-11-21T03:24:59;100708.77;;;-0.26;95.09
77011;BME280;65945;53.148;17.956;2023-11-21T03:27:25;100710.52;;;-0.26;94.72
77011;BME280;65945;53.148;17.956;2023-11-21T03:29:52;100713.94;;;-0.27;94.81
77011;BME280;65945;53.148;17.956;2023-11-21T03:32:18;100718.89;;;-0.27;94.66
77011;BME280;65945;53.148;17.956;2023-11-21T03:34:55;100716.67;;;-0.27;94.84
77011;BME280;65945;53.148;17.956;2023-11-21T03:37:23;100721.62;;;-0.27;94.70
77011;BME280;65945;53.148;17.956;2023-11-21T03:39:50;100722.67;;;-0.27;95.03
77011;BME280;65945;53.148;17.956;2023-11-21T03:42:17;100725.52;;;-0.27;94.94
77011;BME280;65945;53.148;17.956;2023-11-21T03:44:43;100723.23;;;-0.26;94.88
77011;BME280;65945;53.148;17.956;2023-11-21T03:47:10;100724.23;;;-0.25;95.20
77011;BME280;65945;53.148;17.956;2023-11-21T03:49:38;100723.50;;;-0.26;95.03
77011;BME280;65945;53.148;17.956;2023-11-21T03:52:05;100716.08;;;-0.25;95.07
77011;BME280;65945;53.148;17.956;2023-11-21T03:54:32;100717.45;;;-0.26;94.45
77011;BME280;65945;53.148;17.956;2023-11-21T03:56:59;100717.36;;;-0.26;94.47
77011;BME280;65945;53.148;17.956;2023-11-21T03:59:25;100717.69;;;-0.27;94.51
77011;BME280;65945;53.148;17.956;2023-11-21T04:01:55;100721.42;;;-0.27;94.44
77011;BME280;65945;53.148;17.956;2023-11-21T04:04:22;100726.55;;;-0.30;93.69
77011;BME280;65945;53.148;17.956;2023-11-21T04:06:49;100725.65;;;-0.31;93.80
77011;BME280;65945;53.148;17.956;2023-11-21T04:09:18;100727.34;;;-0.33;93.45
77011;BME280;65945;53.148;17.956;2023-11-21T04:11:45;100731.04;;;-0.34;93.73
77011;BME280;65945;53.148;17.956;2023-11-21T04:14:12;100734.95;;;-0.36;93.09
77011;BME280;65945;53.148;17.956;2023-11-21T04:16:40;100738.06;;;-0.37;93.65
77011;BME280;65945;53.148;17.956;2023-11-21T04:19:07;100739.85;;;-0.38;93.66
77011;BME280;65945;53.148;17.956;2023-11-21T04:21:34;100747.94;;;-0.38;93.48
77011;BME280;65945;53.148;17.956;2023-11-21T04:24:00;100746.59;;;-0.40;93.28
77011;BME280;65945;53.148;17.956;2023-11-21T04:26:27;100748.13;;;-0.40;93.96
77011;BME280;65945;53.148;17.956;2023-11-21T04:28:54;100746.84;;;-0.44;93.71
77011;BME280;65945;53.148;17.956;2023-11-21T04:31:20;100744.23;;;-0.47;93.01
77011;BME280;65945;53.148;17.956;2023-11-21T04:33:47;100746.09;;;-0.50;92.19
77011;BME280;65945;53.148;17.956;2023-11-21T04:36:14;100751.41;;;-0.51;92.51
77011;BME280;65945;53.148;17.956;2023-11-21T04:38:40;100749.95;;;-0.52;91.89
77011;BME280;65945;53.148;17.956;2023-11-21T04:41:07;100753.67;;;-0.52;92.17
77011;BME280;65945;53.148;17.956;2023-11-21T04:43:34;100755.95;;;-0.53;92.23
77011;BME280;65945;53.148;17.956;2023-11-21T04:46:01;100762.58;;;-0.53;92.77
77011;BME280;65945;53.148;17.956;2023-11-21T04:48:28;100766.23;;;-0.53;93.12
77011;BME280;65945;53.148;17.956;2023-11-21T04:50:55;100767.82;;;-0.53;93.05
77011;BME280;65945;53.148;17.956;2023-11-21T04:53:22;100774.50;;;-0.54;93.03
77011;BME280;65945;53.148;17.956;2023-11-21T04:55:49;100778.82;;;-0.55;93.24
77011;BME280;65945;53.148;17.956;2023-11-21T04:58:15;100789.91;;;-0.56;93.37
77011;BME280;65945;53.148;17.956;2023-11-21T05:00:42;100788.55;;;-0.57;93.03
77011;BME280;65945;53.148;17.956;2023-11-21T05:03:09;100790.45;;;-0.60;92.23
77011;BME280;65945;53.148;17.956;2023-11-21T05:05:36;100795.45;;;-0.61;92.18
77011;BME280;65945;53.148;17.956;2023-11-21T05:08:02;100800.29;;;-0.62;91.79
77011;BME280;65945;53.148;17.956;2023-11-21T05:10:30;100799.10;;;-0.63;91.53
77011;BME280;65945;53.148;17.956;2023-11-21T05:12:56;100802.52;;;-0.64;91.57
77011;BME280;65945;53.148;17.956;2023-11-21T05:15:24;100799.94;;;-0.64;91.99
77011;BME280;65945;53.148;17.956;2023-11-21T05:17:51;100800.09;;;-0.63;92.69
77011;BME280;65945;53.148;17.956;2023-11-21T05:20:18;100798.25;;;-0.62;92.90
77011;BME280;65945;53.148;17.956;2023-11-21T05:22:47;100800.56;;;-0.63;92.88
77011;BME280;65945;53.148;17.956;2023-11-21T05:25:17;100803.50;;;-0.63;92.97
77011;BME280;65945;53.148;17.956;2023-11-21T05:27:47;100802.92;;;-0.63;92.96
77011;BME280;65945;53.148;17.956;2023-11-21T05:30:14;100810.38;;;-0.63;92.93
77011;BME280;65945;53.148;17.956;2023-11-21T05:32:41;100816.80;;;-0.63;92.65
77011;BME280;65945;53.148;17.956;2023-11-21T05:35:10;100822.16;;;-0.64;92.99
77011;BME280;65945;53.148;17.956;2023-11-21T05:37:42;100824.06;;;-0.65;93.04
77011;BME280;65945;53.148;17.956;2023-11-21T05:40:09;100825.48;;;-0.65;93.00
77011;BME280;65945;53.148;17.956;2023-11-21T05:42:36;100832.58;;;-0.67;92.94
77011;BME280;65945;53.148;17.956;2023-11-21T05:45:04;100835.11;;;-0.69;92.67
77011;BME280;65945;53.148;17.956;2023-11-21T05:47:39;100843.94;;;-0.68;93.15
77011;BME280;65945;53.148;17.956;2023-11-21T05:50:11;100844.62;;;-0.68;93.25
77011;BME280;65945;53.148;17.956;2023-11-21T05:52:44;100847.35;;;-0.68;92.90
77011;BME280;65945;53.148;17.956;2023-11-21T05:55:11;100849.08;;;-0.67;93.33
77011;BME280;65945;53.148;17.956;2023-11-21T05:57:40;100851.02;;;-0.66;92.97
77011;BME280;65945;53.148;17.956;2023-11-21T06:00:13;100855.22;;;-0.66;93.11
77011;BME280;65945;53.148;17.956;2023-11-21T06:02:52;100860.89;;;-0.66;92.81
77011;BME280;65945;53.148;17.956;2023-11-21T06:05:22;100868.40;;;-0.66;92.73
77011;BME280;65945;53.148;17.956;2023-11-21T06:07:55;100874.70;;;-0.66;92.63
77011;BME280;65945;53.148;17.956;2023-11-21T06:10:25;100876.03;;;-0.66;93.15
77011;BME280;65945;53.148;17.956;2023-11-21T06:12:52;100880.48;;;-0.65;92.91
77011;BME280;65945;53.148;17.956;2023-11-21T06:15:19;100883.05;;;-0.66;92.63
77011;BME280;65945;53.148;17.956;2023-11-21T06:17:47;100882.80;;;-0.67;92.35
77011;BME280;65945;53.148;17.956;2023-11-21T06:20:18;100889.52;;;-0.67;92.41
77011;BME280;65945;53.148;17.956;2023-11-21T06:22:46;100894.01;;;-0.68;91.53
77011;BME280;65945;53.148;17.956;2023-11-21T06:25:14;100899.90;;;-0.71;89.96
77011;BME280;65945;53.148;17.956;2023-11-21T06:27:43;100909.77;;;-0.72;89.41
77011;BME280;65945;53.148;17.956;2023-11-21T06:30:14;100912.30;;;-0.73;89.90
77011;BME280;65945;53.148;17.956;2023-11-21T06:32:42;100914.71;;;-0.73;90.12
77011;BME280;65945;53.148;17.956;2023-11-21T06:35:12;100915.55;;;-0.73;90.18
77011;BME280;65945;53.148;17.956;2023-11-21T06:37:39;100922.27;;;-0.72;90.46
77011;BME280;65945;53.148;17.956;2023-11-21T06:40:07;100924.64;;;-0.73;89.85
77011;BME280;65945;53.148;17.956;2023-11-21T06:42:34;100928.06;;;-0.72;90.21
77011;BME280;65945;53.148;17.956;2023-11-21T06:45:01;100928.16;;;-0.72;90.52
77011;BME280;65945;53.148;17.956;2023-11-21T06:47:30;100931.52;;;-0.71;91.12
77011;BME280;65945;53.148;17.956;2023-11-21T06:49:57;100930.46;;;-0.70;91.10
77011;BME280;65945;53.148;17.956;2023-11-21T06:52:24;100934.56;;;-0.70;90.81
77011;BME280;65945;53.148;17.956;2023-11-21T06:54:51;100937.02;;;-0.70;90.53
77011;BME280;65945;53.148;17.956;2023-11-21T06:57:18;100941.60;;;-0.68;91.21
77011;BME280;65945;53.148;17.956;2023-11-21T06:59:45;100947.78;;;-0.67;90.64
77011;BME280;65945;53.148;17.956;2023-11-21T07:02:11;100954.36;;;-0.66;90.93
77011;BME280;65945;53.148;17.956;2023-11-21T07:04:38;100956.55;;;-0.65;90.83
77011;BME280;65945;53.148;17.956;2023-11-21T07:07:06;100962.13;;;-0.66;90.00
77011;BME280;65945;53.148;17.956;2023-11-21T07:09:33;100965.23;;;-0.66;89.85
77011;BME280;65945;53.148;17.956;2023-11-21T07:12:00;100966.02;;;-0.66;89.32
77011;BME280;65945;53.148;17.956;2023-11-21T07:14:28;100968.27;;;-0.66;89.55
77011;BME280;65945;53.148;17.956;2023-11-21T07:16:54;100973.58;;;-0.66;89.40
77011;BME280;65945;53.148;17.956;2023-11-21T07:19:21;100975.25;;;-0.65;89.01
77011;BME280;65945;53.148;17.956;2023-11-21T07:21:48;100981.14;;;-0.65;88.51
77011;BME280;65945;53.148;17.956;2023-11-21T07:24:17;100984.45;;;-0.65;87.34
77011;BME280;65945;53.148;17.956;2023-11-21T07:26:44;100984.88;;;-0.65;86.59
77011;BME280;65945;53.148;17.956;2023-11-21T07:29:11;100988.18;;;-0.65;86.46
77011;BME280;65945;53.148;17.956;2023-11-21T07:31:38;100986.97;;;-0.65;85.62
77011;BME280;65945;53.148;17.956;2023-11-21T07:34:04;100995.16;;;-0.64;85.97
77011;BME280;65945;53.148;17.956;2023-11-21T07:36:31;100994.21;;;-0.64;85.92
77011;BME280;65945;53.148;17.956;2023-11-21T07:38:58;100998.16;;;-0.63;85.44
77011;BME280;65945;53.148;17.956;2023-11-21T07:41:24;101003.73;;;-0.63;84.50
77011;BME280;65945;53.148;17.956;2023-11-21T07:43:51;101002.19;;;-0.61;85.17
77011;BME280;65945;53.148;17.956;2023-11-21T07:46:17;100996.41;;;-0.59;84.38
77011;BME280;65945;53.148;17.956;2023-11-21T07:48:44;100994.82;;;-0.56;84.71
77011;BME280;65945;53.148;17.956;2023-11-21T07:51:12;100997.88;;;-0.55;84.31
77011;BME280;65945;53.148;17.956;2023-11-21T07:53:40;101002.85;;;-0.53;84.21
77011;BME280;65945;53.148;17.956;2023-11-21T07:56:08;101002.95;;;-0.52;83.15
77011;BME280;65945;53.148;17.956;2023-11-21T07:58:35;101004.95;;;-0.48;84.22
77011;BME280;65945;53.148;17.956;2023-11-21T08:01:03;101006.08;;;-0.45;83.38
77011;BME280;65945;53.148;17.956;2023-11-21T08:03:30;101007.02;;;-0.41;83.11
77011;BME280;65945;53.148;17.956;2023-11-21T08:05:58;101011.77;;;-0.36;83.64
77011;BME280;65945;53.148;17.956;2023-11-21T08:08:25;101011.66;;;-0.32;83.42
77011;BME280;65945;53.148;17.956;2023-11-21T08:10:52;101010.01;;;-0.27;83.47
77011;BME280;65945;53.148;17.956;2023-11-21T08:13:28;101017.23;;;-0.22;83.54
77011;BME280;65945;53.148;17.956;2023-11-21T08:15:57;101018.07;;;-0.17;83.13
77011;BME280;65945;53.148;17.956;2023-11-21T08:18:29;101020.15;;;-0.13;82.45
77011;BME280;65945;53.148;17.956;2023-11-21T08:20:57;101021.34;;;-0.10;81.56
77011;BME280;65945;53.148;17.956;2023-11-21T08:23:23;101022.16;;;-0.07;80.60
77011;BME280;65945;53.148;17.956;2023-11-21T08:25:53;101022.83;;;-0.03;81.88
77011;BME280;65945;53.148;17.956;2023-11-21T08:28:20;101022.04;;;0.00;81.47
77011;BME280;65945;53.148;17.956;2023-11-21T08:30:52;101020.71;;;0.03;81.41
77011;BME280;65945;53.148;17.956;2023-11-21T08:33:20;101022.64;;;0.04;80.45
77011;BME280;65945;53.148;17.956;2023-11-21T08:35:48;101023.89;;;0.06;80.47
77011;BME280;65945;53.148;17.956;2023-11-21T08:38:15;101024.87;;;0.09;81.14
77011;BME280;65945;53.148;17.956;2023-11-21T08:40:41;101028.64;;;0.13;80.10
77011;BME280;65945;53.148;17.956;2023-11-21T08:43:08;101025.50;;;0.18;79.59
77011;BME280;65945;53.148;17.956;2023-11-21T08:45:35;101023.01;;;0.23;78.55
77011;BME280;65945;53.148;17.956;2023-11-21T08:48:02;101029.89;;;0.23;76.85
77011;BME280;65945;53.148;17.956;2023-11-21T08:50:29;101021.09;;;0.25;77.65
77011;BME280;65945;53.148;17.956;2023-11-21T08:52:55;101019.36;;;0.26;76.82
77011;BME280;65945;53.148;17.956;2023-11-21T08:55:22;101024.67;;;0.28;76.96
77011;BME280;65945;53.148;17.956;2023-11-21T08:57:49;101027.21;;;0.31;78.10
77011;BME280;65945;53.148;17.956;2023-11-21T09:00:16;101029.51;;;0.36;78.68
77011;BME280;65945;53.148;17.956;2023-11-21T09:02:45;101031.98;;;0.42;79.43
77011;BME280;65945;53.148;17.956;2023-11-21T09:05:15;101042.38;;;0.47;79.63
77011;BME280;65945;53.148;17.956;2023-11-21T09:07:42;101047.77;;;0.50;78.99
77011;BME280;65945;53.148;17.956;2023-11-21T09:10:09;101050.83;;;0.52;78.91
77011;BME280;65945;53.148;17.956;2023-11-21T09:12:36;101048.39;;;0.52;78.10
77011;BME280;65945;53.148;17.956;2023-11-21T09:15:07;101052.27;;;0.50;77.12
77011;BME280;65945;53.148;17.956;2023-11-21T09:17:36;101053.77;;;0.45;76.12
77011;BME280;65945;53.148;17.956;2023-11-21T09:20:03;101054.08;;;0.44;76.50
77011;BME280;65945;53.148;17.956;2023-11-21T09:22:32;101053.10;;;0.40;76.32
77011;BME280;65945;53.148;17.956;2023-11-21T09:24:59;101058.46;;;0.40;76.32
77011;BME280;65945;53.148;17.956;2023-11-21T09:27:25;101063.91;;;0.37;75.50
77011;BME280;65945;53.148;17.956;2023-11-21T09:29:52;101064.27;;;0.39;76.54
77011;BME280;65945;53.148;17.956;2023-11-21T09:32:20;101068.69;;;0.38;76.31
77011;BME280;65945;53.148;17.956;2023-11-21T09:34:48;101067.52;;;0.41;76.64
77011;BME280;65945;53.148;17.956;2023-11-21T09:37:16;101070.84;;;0.41;76.17
77011;BME280;65945;53.148;17.956;2023-11-21T09:39:42;101076.84;;;0.40;75.81
77011;BME280;65945;53.148;17.956;2023-11-21T09:42:15;101081.38;;;0.38;75.97
77011;BME280;65945;53.148;17.956;2023-11-21T09:47:35;101087.10;;;0.40;77.02
77011;BME280;65945;53.148;17.956;2023-11-21T09:50:05;101082.69;;;0.38;76.28
77011;BME280;65945;53.148;17.956;2023-11-21T09:52:55;101083.52;;;0.38;77.15
77011;BME280;65945;53.148;17.956;2023-11-21T09:55:27;101084.93;;;0.42;78.33
77011;BME280;65945;53.148;17.956;2023-11-21T09:57:56;101090.61;;;0.42;77.70
77011;BME280;65945;53.148;17.956;2023-11-21T10:00:24;101088.92;;;0.43;77.76
77011;BME280;65945;53.148;17.956;2023-11-21T10:02:52;101085.77;;;0.42;76.85
77011;BME280;65945;53.148;17.956;2023-11-21T10:05:22;101085.25;;;0.41;77.23
77011;BME280;65945;53.148;17.956;2023-11-21T10:07:50;101084.67;;;0.41;77.27
77011;BME280;65945;53.148;17.956;2023-11-21T10:10:19;101085.84;;;0.42;77.47
77011;BME280;65945;53.148;17.956;2023-11-21T10:12:49;101089.98;;;0.42;76.93
77011;BME280;65945;53.148;17.956;2023-11-21T10:15:21;101090.04;;;0.42;77.05
77011;BME280;65945;53.148;17.956;2023-11-21T10:17:49;101093.84;;;0.42;77.64
77011;BME280;65945;53.148;17.956;2023-11-21T10:20:16;101095.14;;;0.43;78.04
77011;BME280;65945;53.148;17.956;2023-11-21T10:22:43;101098.45;;;0.46;77.74
77011;BME280;65945;53.148;17.956;2023-11-21T10:25:10;101101.45;;;0.44;76.46
77011;BME280;65945;53.148;17.956;2023-11-21T10:27:37;101100.10;;;0.41;76.27
77011;BME280;65945;53.148;17.956;2023-11-21T10:30:07;101105.45;;;0.37;75.70
77011;BME280;65945;53.148;17.956;2023-11-21T10:32:41;101105.29;;;0.36;75.99
77011;BME280;65945;53.148;17.956;2023-11-21T10:35:09;101107.09;;;0.35;76.48
77011;BME280;65945;53.148;17.956;2023-11-21T10:37:39;101114.39;;;0.35;76.41
77011;BME280;65945;53.148;17.956;2023-11-21T10:40:10;101116.08;;;0.34;76.36
77011;BME280;65945;53.148;17.956;2023-11-21T10:42:40;101121.08;;;0.34;76.42
77011;BME280;65945;53.148;17.956;2023-11-21T10:45:09;101121.55;;;0.34;76.21
77011;BME280;65945;53.148;17.956;2023-11-21T10:47:41;101123.14;;;0.32;75.42
77011;BME280;65945;53.148;17.956;2023-11-21T10:50:08;101123.78;;;0.31;76.04
77011;BME280;65945;53.148;17.956;2023-11-21T10:52:40;101126.92;;;0.33;77.12
77011;BME280;65945;53.148;17.956;2023-11-21T10:55:16;101124.86;;;0.35;76.96
77011;BME280;65945;53.148;17.956;2023-11-21T10:57:48;101123.06;;;0.38;77.66
77011;BME280;65945;53.148;17.956;2023-11-21T11:00:17;101122.59;;;0.39;76.69
77011;BME280;65945;53.148;17.956;2023-11-21T11:02:52;101120.35;;;0.42;77.21
77011;BME280;65945;53.148;17.956;2023-11-21T11:05:22;101122.50;;;0.44;77.62
77011;BME280;65945;53.148;17.956;2023-11-21T11:08:07;101125.39;;;0.45;77.46
77011;BME280;65945;53.148;17.956;2023-11-21T11:10:34;101128.59;;;0.46;77.45
77011;BME280;65945;53.148;17.956;2023-11-21T11:13:02;101127.27;;;0.46;77.09
77011;BME280;65945;53.148;17.956;2023-11-21T11:15:29;101132.59;;;0.45;77.36
77011;BME280;65945;53.148;17.956;2023-11-21T11:17:55;101139.91;;;0.44;77.18
77011;BME280;65945;53.148;17.956;2023-11-21T11:20:27;101141.35;;;0.41;76.54
77011;BME280;65945;53.148;17.956;2023-11-21T11:28:20;101155.19;;;0.30;76.29
77011;BME280;65945;53.148;17.956;2023-11-21T11:31:11;101157.30;;;0.30;76.48
77011;BME280;65945;53.148;17.956;2023-11-21T11:36:48;101168.92;;;0.31;76.03
77011;BME280;65945;53.148;17.956;2023-11-21T11:39:33;101175.92;;;0.31;76.35
77011;BME280;65945;53.148;17.956;2023-11-21T11:42:04;101188.45;;;0.33;76.65
77011;BME280;65945;53.148;17.956;2023-11-21T11:47:13;101194.02;;;0.32;75.52
77011;BME280;65945;53.148;17.956;2023-11-21T11:54:59;101199.13;;;0.31;75.39
77011;BME280;65945;53.148;17.956;2023-11-21T11:57:30;101195.92;;;0.27;75.26
77011;BME280;65945;53.148;17.956;2023-11-21T12:02:58;101199.06;;;0.20;75.36
77011;BME280;65945;53.148;17.956;2023-11-21T12:05:26;101196.02;;;0.20;75.89
77011;BME280;65945;53.148;17.956;2023-11-21T12:08:01;101196.02;;;0.18;76.01
77011;BME280;65945;53.148;17.956;2023-11-21T12:10:31;101199.42;;;0.20;76.72
77011;BME280;65945;53.148;17.956;2023-11-21T12:13:02;101197.34;;;0.18;76.29
77011;BME280;65945;53.148;17.956;2023-11-21T12:15:31;101202.48;;;0.17;76.77
77011;BME280;65945;53.148;17.956;2023-11-21T12:17:58;101202.29;;;0.15;75.99
77011;BME280;65945;53.148;17.956;2023-11-21T12:20:26;101206.17;;;0.15;76.60
77011;BME280;65945;53.148;17.956;2023-11-21T12:22:55;101209.39;;;0.15;76.82
77011;BME280;65945;53.148;17.956;2023-11-21T12:25:26;101204.97;;;0.14;76.64
77011;BME280;65945;53.148;17.956;2023-11-21T12:28:01;101205.60;;;0.15;77.08
77011;BME280;65945;53.148;17.956;2023-11-21T12:30:30;101202.55;;;0.15;76.97
77011;BME280;65945;53.148;17.956;2023-11-21T12:32:59;101203.34;;;0.15;76.54
77011;BME280;65945;53.148;17.956;2023-11-21T12:35:32;101205.27;;;0.17;77.31
77011;BME280;65945;53.148;17.956;2023-11-21T12:38:02;101205.32;;;0.19;77.62
77011;BME280;65945;53.148;17.956;2023-11-21T12:40:29;101202.16;;;0.20;76.63
77011;BME280;65945;53.148;17.956;2023-11-21T12:42:57;101208.58;;;0.19;76.44
77011;BME280;65945;53.148;17.956;2023-11-21T12:45:27;101211.73;;;0.20;77.19
77011;BME280;65945;53.148;17.956;2023-11-21T12:47:56;101216.05;;;0.20;76.26
77011;BME280;65945;53.148;17.956;2023-11-21T12:50:27;101224.67;;;0.20;76.30
77011;BME280;65945;53.148;17.956;2023-11-21T12:53:02;101232.30;;;0.20;76.83
77011;BME280;65945;53.148;17.956;2023-11-21T12:55:35;101236.36;;;0.21;77.11
77011;BME280;65945;53.148;17.956;2023-11-21T12:58:07;101240.04;;;0.22;76.64
77011;BME280;65945;53.148;17.956;2023-11-21T13:00:39;101240.73;;;0.23;77.04
77011;BME280;65945;53.148;17.956;2023-11-21T13:03:10;101241.09;;;0.24;76.83
77011;BME280;65945;53.148;17.956;2023-11-21T13:05:40;101248.29;;;0.26;76.70
77011;BME280;65945;53.148;17.956;2023-11-21T13:08:12;101245.60;;;0.26;76.13
77011;BME280;65945;53.148;17.956;2023-11-21T13:10:40;101254.29;;;0.27;76.35
77011;BME280;65945;53.148;17.956;2023-11-21T13:13:11;101257.97;;;0.28;76.63